sensor_id;sensor_type;location;lat;lon;timestamp;P1;durP1;ratioP1;P2;durP2;ratioP2
16804;SDS011;8520;50.102;20.010;2024-02-16T00:01:21;86.97;;;79.30;;
16804;SDS011;8520;50.102;20.010;2024-02-16T00:03:51;89.13;;;81.10;;
16804;SDS011;8520;50.102;20.010;2024-02-16T00:06:19;90.07;;;82.10;;
16804;SDS011;8520;50.102;20.010;2024-02-16T00:08:47;90.30;;;82.40;;
16804;SDS011;8520;50.102;20.010;2024-02-16T00:11:15;89.70;;;81.60;;
16804;SDS011;8520;50.102;20.010;2024-02-16T00:13:43;91.27;;;82.97;;
16804;SDS011;8520;50.102;20.010;2024-02-16T00:16:11;89.83;;;81.87;;
16804;SDS011;8520;50.102;20.010;2024-02-16T00:18:39;90.70;;;82.53;;
16804;SDS011;8520;50.102;20.010;2024-02-16T00:21:09;90.90;;;82.67;;
16804;SDS011;8520;50.102;20.010;2024-02-16T00:23:37;93.20;;;85.00;;
16804;SDS011;8520;50.102;20.010;2024-02-16T00:26:05;93.80;;;85.63;;
16804;SDS011;8520;50.102;20.010;2024-02-16T00:28:33;94.23;;;85.83;;
16804;SDS011;8520;50.102;20.010;2024-02-16T00:31:01;94.77;;;86.17;;
16804;SDS011;8520;50.102;20.010;2024-02-16T00:33:30;92.13;;;84.17;;
16804;SDS011;8520;50.102;20.010;2024-02-16T00:35:58;97.03;;;88.37;;
16804;SDS011;8520;50.102;20.010;2024-02-16T00:38:27;98.03;;;89.30;;
16804;SDS011;8520;50.102;20.010;2024-02-16T00:40:55;95.30;;;87.03;;
16804;SDS011;8520;50.102;20.010;2024-02-16T00:43:23;98.27;;;89.47;;
16804;SDS011;8520;50.102;20.010;2024-02-16T00:45:51;98.53;;;89.73;;
16804;SDS011;8520;50.102;20.010;2024-02-16T00:48:19;101.10;;;92.23;;
16804;SDS011;8520;50.102;20.010;2024-02-16T00:50:47;101.67;;;92.57;;
16804;SDS011;8520;50.102;20.010;2024-02-16T00:53:15;103.27;;;94.03;;
16804;SDS011;8520;50.102;20.010;2024-02-16T00:55:45;102.13;;;93.00;;
16804;SDS011;8520;50.102;20.010;2024-02-16T00:58:13;101.80;;;92.93;;
16804;SDS011;8520;50.102;20.010;2024-02-16T01:00:41;100.07;;;91.47;;
16804;SDS011;8520;50.102;20.010;2024-02-16T01:03:10;103.23;;;94.20;;
16804;SDS011;8520;50.102;20.010;2024-02-16T01:05:39;103.50;;;94.17;;
16804;SDS011;8520;50.102;20.010;2024-02-16T01:08:08;101.00;;;92.00;;
16804;SDS011;8520;50.102;20.010;2024-02-16T01:10:36;99.70;;;90.93;;
16804;SDS011;8520;50.102;20.010;2024-02-16T01:13:05;98.57;;;90.00;;
16804;SDS011;8520;50.102;20.010;2024-02-16T01:15:33;99.40;;;90.60;;
16804;SDS011;8520;50.102;20.010;2024-02-16T01:18:04;98.70;;;90.33;;
16804;SDS011;8520;50.102;20.010;2024-02-16T01:20:33;103.80;;;94.80;;
16804;SDS011;8520;50.102;20.010;2024-02-16T01:23:01;103.70;;;94.60;;
16804;SDS011;8520;50.102;20.010;2024-02-16T01:25:31;102.50;;;93.80;;
16804;SDS011;8520;50.102;20.010;2024-02-16T01:27:59;102.80;;;94.13;;
16804;SDS011;8520;50.102;20.010;2024-02-16T01:30:29;105.47;;;96.33;;
16804;SDS011;8520;50.102;20.010;2024-02-16T01:32:57;104.43;;;95.43;;
16804;SDS011;8520;50.102;20.010;2024-02-16T01:35:25;105.37;;;96.13;;
16804;SDS011;8520;50.102;20.010;2024-02-16T01:37:53;104.30;;;95.43;;
16804;SDS011;8520;50.102;20.010;2024-02-16T01:40:21;101.70;;;93.27;;
16804;SDS011;8520;50.102;20.010;2024-02-16T01:42:52;104.43;;;95.43;;
16804;SDS011;8520;50.102;20.010;2024-02-16T01:45:21;104.13;;;95.13;;
16804;SDS011;8520;50.102;20.010;2024-02-16T01:47:51;104.53;;;95.63;;
16804;SDS011;8520;50.102;20.010;2024-02-16T01:50:20;101.33;;;92.57;;
16804;SDS011;8520;50.102;20.010;2024-02-16T01:52:49;102.30;;;93.50;;
16804;SDS011;8520;50.102;20.010;2024-02-16T01:55:19;101.13;;;92.30;;
16804;SDS011;8520;50.102;20.010;2024-02-16T01:57:48;101.70;;;93.00;;
16804;SDS011;8520;50.102;20.010;2024-02-16T02:00:17;101.27;;;92.63;;
16804;SDS011;8520;50.102;20.010;2024-02-16T02:02:46;102.53;;;93.43;;
16804;SDS011;8520;50.102;20.010;2024-02-16T02:05:15;103.10;;;94.00;;
16804;SDS011;8520;50.102;20.010;2024-02-16T02:07:43;102.70;;;93.90;;
16804;SDS011;8520;50.102;20.010;2024-02-16T02:10:11;104.23;;;94.97;;
16804;SDS011;8520;50.102;20.010;2024-02-16T02:12:39;103.27;;;94.57;;
16804;SDS011;8520;50.102;20.010;2024-02-16T02:15:09;105.43;;;96.50;;
16804;SDS011;8520;50.102;20.010;2024-02-16T02:17:38;107.47;;;97.57;;
16804;SDS011;8520;50.102;20.010;2024-02-16T02:20:07;105.23;;;95.97;;
16804;SDS011;8520;50.102;20.010;2024-02-16T02:22:39;101.83;;;92.90;;
16804;SDS011;8520;50.102;20.010;2024-02-16T02:25:08;104.77;;;95.73;;
16804;SDS011;8520;50.102;20.010;2024-02-16T02:27:37;103.60;;;94.73;;
16804;SDS011;8520;50.102;20.010;2024-02-16T02:30:06;103.70;;;94.97;;
16804;SDS011;8520;50.102;20.010;2024-02-16T02:32:34;102.47;;;93.63;;
16804;SDS011;8520;50.102;20.010;2024-02-16T02:35:02;102.13;;;93.30;;
16804;SDS011;8520;50.102;20.010;2024-02-16T02:37:31;101.90;;;92.70;;
16804;SDS011;8520;50.102;20.010;2024-02-16T02:40:00;100.67;;;91.90;;
16804;SDS011;8520;50.102;20.010;2024-02-16T02:42:32;102.67;;;93.43;;
16804;SDS011;8520;50.102;20.010;2024-02-16T02:45:00;97.90;;;89.33;;
16804;SDS011;8520;50.102;20.010;2024-02-16T02:47:28;101.20;;;92.27;;
16804;SDS011;8520;50.102;20.010;2024-02-16T02:49:57;101.53;;;92.70;;
16804;SDS011;8520;50.102;20.010;2024-02-16T02:52:25;102.73;;;93.60;;
16804;SDS011;8520;50.102;20.010;2024-02-16T02:54:53;98.30;;;90.17;;
16804;SDS011;8520;50.102;20.010;2024-02-16T02:57:22;102.37;;;93.50;;
16804;SDS011;8520;50.102;20.010;2024-02-16T02:59:50;105.77;;;96.67;;
16804;SDS011;8520;50.102;20.010;2024-02-16T03:02:18;105.03;;;95.73;;
16804;SDS011;8520;50.102;20.010;2024-02-16T03:04:46;105.00;;;95.80;;
16804;SDS011;8520;50.102;20.010;2024-02-16T03:07:15;103.03;;;94.30;;
16804;SDS011;8520;50.102;20.010;2024-02-16T03:09:43;106.47;;;97.23;;
16804;SDS011;8520;50.102;20.010;2024-02-16T03:12:13;111.77;;;101.70;;
16804;SDS011;8520;50.102;20.010;2024-02-16T03:14:42;108.33;;;98.87;;
16804;SDS011;8520;50.102;20.010;2024-02-16T03:17:10;111.07;;;101.10;;
16804;SDS011;8520;50.102;20.010;2024-02-16T03:19:38;110.20;;;100.60;;
16804;SDS011;8520;50.102;20.010;2024-02-16T03:22:07;115.57;;;105.13;;
16804;SDS011;8520;50.102;20.010;2024-02-16T03:24:35;116.00;;;105.77;;
16804;SDS011;8520;50.102;20.010;2024-02-16T03:27:03;124.30;;;112.77;;
16804;SDS011;8520;50.102;20.010;2024-02-16T03:29:32;118.90;;;108.27;;
16804;SDS011;8520;50.102;20.010;2024-02-16T03:32:01;118.77;;;108.10;;
16804;SDS011;8520;50.102;20.010;2024-02-16T03:34:29;120.23;;;109.73;;
16804;SDS011;8520;50.102;20.010;2024-02-16T03:36:57;120.20;;;109.40;;
16804;SDS011;8520;50.102;20.010;2024-02-16T03:39:26;119.80;;;109.03;;
16804;SDS011;8520;50.102;20.010;2024-02-16T03:41:54;118.23;;;107.47;;
16804;SDS011;8520;50.102;20.010;2024-02-16T03:44:22;117.83;;;107.37;;
16804;SDS011;8520;50.102;20.010;2024-02-16T03:46:50;116.40;;;106.30;;
16804;SDS011;8520;50.102;20.010;2024-02-16T03:49:25;115.83;;;105.87;;
16804;SDS011;8520;50.102;20.010;2024-02-16T03:51:54;116.37;;;105.97;;
16804;SDS011;8520;50.102;20.010;2024-02-16T03:54:22;117.33;;;106.87;;
16804;SDS011;8520;50.102;20.010;2024-02-16T03:56:52;114.87;;;105.17;;
16804;SDS011;8520;50.102;20.010;2024-02-16T03:59:20;117.67;;;107.57;;
16804;SDS011;8520;50.102;20.010;2024-02-16T04:01:48;118.27;;;107.83;;
16804;SDS011;8520;50.102;20.010;2024-02-16T04:04:16;114.90;;;104.73;;
16804;SDS011;8520;50.102;20.010;2024-02-16T04:06:46;117.53;;;107.50;;
16804;SDS011;8520;50.102;20.010;2024-02-16T04:09:14;116.17;;;106.40;;
16804;SDS011;8520;50.102;20.010;2024-02-16T04:11:42;114.23;;;104.17;;
16804;SDS011;8520;50.102;20.010;2024-02-16T04:14:11;120.60;;;110.17;;
16804;SDS011;8520;50.102;20.010;2024-02-16T04:16:38;117.27;;;107.27;;
16804;SDS011;8520;50.102;20.010;2024-02-16T04:19:07;118.20;;;108.33;;
16804;SDS011;8520;50.102;20.010;2024-02-16T04:21:35;115.50;;;105.27;;
16804;SDS011;8520;50.102;20.010;2024-02-16T04:24:05;115.20;;;105.37;;
16804;SDS011;8520;50.102;20.010;2024-02-16T04:26:33;114.80;;;104.93;;
16804;SDS011;8520;50.102;20.010;2024-02-16T04:29:02;119.43;;;109.23;;
16804;SDS011;8520;50.102;20.010;2024-02-16T04:31:31;119.53;;;109.37;;
16804;SDS011;8520;50.102;20.010;2024-02-16T04:33:59;119.53;;;109.27;;
16804;SDS011;8520;50.102;20.010;2024-02-16T04:36:28;122.50;;;111.87;;
16804;SDS011;8520;50.102;20.010;2024-02-16T04:38:56;119.80;;;109.50;;
16804;SDS011;8520;50.102;20.010;2024-02-16T04:41:26;122.83;;;112.33;;
16804;SDS011;8520;50.102;20.010;2024-02-16T04:43:54;119.73;;;109.67;;
16804;SDS011;8520;50.102;20.010;2024-02-16T04:46:22;118.87;;;108.73;;
16804;SDS011;8520;50.102;20.010;2024-02-16T04:48:50;119.00;;;108.77;;
16804;SDS011;8520;50.102;20.010;2024-02-16T04:51:18;118.87;;;108.97;;
16804;SDS011;8520;50.102;20.010;2024-02-16T04:53:46;116.47;;;106.87;;
16804;SDS011;8520;50.102;20.010;2024-02-16T04:56:15;117.57;;;107.87;;
16804;SDS011;8520;50.102;20.010;2024-02-16T04:58:44;117.10;;;107.57;;
16804;SDS011;8520;50.102;20.010;2024-02-16T05:01:12;119.13;;;109.13;;
16804;SDS011;8520;50.102;20.010;2024-02-16T05:03:40;118.03;;;108.33;;
16804;SDS011;8520;50.102;20.010;2024-02-16T05:06:09;119.57;;;109.83;;
16804;SDS011;8520;50.102;20.010;2024-02-16T05:08:37;118.43;;;108.77;;
16804;SDS011;8520;50.102;20.010;2024-02-16T05:11:05;119.70;;;109.87;;
16804;SDS011;8520;50.102;20.010;2024-02-16T05:13:35;119.10;;;109.33;;
16804;SDS011;8520;50.102;20.010;2024-02-16T05:16:08;118.97;;;109.23;;
16804;SDS011;8520;50.102;20.010;2024-02-16T05:18:36;118.10;;;108.53;;
16804;SDS011;8520;50.102;20.010;2024-02-16T05:21:05;114.53;;;105.30;;
16804;SDS011;8520;50.102;20.010;2024-02-16T05:23:34;117.80;;;108.00;;
16804;SDS011;8520;50.102;20.010;2024-02-16T05:26:01;115.13;;;105.90;;
16804;SDS011;8520;50.102;20.010;2024-02-16T05:28:29;112.73;;;103.53;;
16804;SDS011;8520;50.102;20.010;2024-02-16T05:30:57;116.10;;;106.60;;
16804;SDS011;8520;50.102;20.010;2024-02-16T05:33:32;113.53;;;104.37;;
16804;SDS011;8520;50.102;20.010;2024-02-16T05:36:01;114.67;;;105.47;;
16804;SDS011;8520;50.102;20.010;2024-02-16T05:38:30;113.80;;;104.80;;
16804;SDS011;8520;50.102;20.010;2024-02-16T05:41:02;112.60;;;103.57;;
16804;SDS011;8520;50.102;20.010;2024-02-16T05:43:30;111.83;;;103.03;;
16804;SDS011;8520;50.102;20.010;2024-02-16T05:45:58;112.80;;;103.73;;
16804;SDS011;8520;50.102;20.010;2024-02-16T05:48:25;113.60;;;104.70;;
16804;SDS011;8520;50.102;20.010;2024-02-16T05:50:59;113.27;;;104.13;;
16804;SDS011;8520;50.102;20.010;2024-02-16T05:53:28;112.53;;;103.40;;
16804;SDS011;8520;50.102;20.010;2024-02-16T05:55:56;114.60;;;105.50;;
16804;SDS011;8520;50.102;20.010;2024-02-16T05:58:25;110.53;;;101.63;;
16804;SDS011;8520;50.102;20.010;2024-02-16T06:00:53;112.63;;;103.30;;
16804;SDS011;8520;50.102;20.010;2024-02-16T06:03:21;109.67;;;101.10;;
16804;SDS011;8520;50.102;20.010;2024-02-16T06:05:49;111.70;;;102.67;;
16804;SDS011;8520;50.102;20.010;2024-02-16T06:08:19;114.40;;;104.90;;
16804;SDS011;8520;50.102;20.010;2024-02-16T06:10:47;110.57;;;101.60;;
16804;SDS011;8520;50.102;20.010;2024-02-16T06:13:18;110.97;;;102.07;;
16804;SDS011;8520;50.102;20.010;2024-02-16T06:15:46;107.83;;;99.23;;
16804;SDS011;8520;50.102;20.010;2024-02-16T06:18:14;109.07;;;100.30;;
16804;SDS011;8520;50.102;20.010;2024-02-16T06:20:42;108.00;;;99.40;;
16804;SDS011;8520;50.102;20.010;2024-02-16T06:23:10;105.37;;;97.03;;
16804;SDS011;8520;50.102;20.010;2024-02-16T06:25:40;104.90;;;96.23;;
16804;SDS011;8520;50.102;20.010;2024-02-16T06:28:08;104.23;;;95.83;;
16804;SDS011;8520;50.102;20.010;2024-02-16T06:30:36;105.50;;;97.17;;
16804;SDS011;8520;50.102;20.010;2024-02-16T06:33:04;103.77;;;95.43;;
16804;SDS011;8520;50.102;20.010;2024-02-16T06:35:33;102.23;;;94.10;;
16804;SDS011;8520;50.102;20.010;2024-02-16T06:38:01;100.80;;;92.67;;
16804;SDS011;8520;50.102;20.010;2024-02-16T06:40:29;98.87;;;90.90;;
16804;SDS011;8520;50.102;20.010;2024-02-16T06:42:58;100.60;;;92.40;;
16804;SDS011;8520;50.102;20.010;2024-02-16T06:45:26;101.03;;;92.83;;
16804;SDS011;8520;50.102;20.010;2024-02-16T06:47:56;96.27;;;88.53;;
16804;SDS011;8520;50.102;20.010;2024-02-16T06:50:24;92.03;;;84.83;;
16804;SDS011;8520;50.102;20.010;2024-02-16T06:52:52;92.07;;;84.90;;
16804;SDS011;8520;50.102;20.010;2024-02-16T06:55:22;94.43;;;86.80;;
16804;SDS011;8520;50.102;20.010;2024-02-16T06:57:50;93.37;;;85.90;;
16804;SDS011;8520;50.102;20.010;2024-02-16T07:00:19;92.50;;;85.30;;
16804;SDS011;8520;50.102;20.010;2024-02-16T07:02:48;91.60;;;84.53;;
16804;SDS011;8520;50.102;20.010;2024-02-16T07:05:16;87.00;;;80.33;;
16804;SDS011;8520;50.102;20.010;2024-02-16T07:07:44;90.97;;;83.87;;
16804;SDS011;8520;50.102;20.010;2024-02-16T07:10:13;87.00;;;80.30;;
16804;SDS011;8520;50.102;20.010;2024-02-16T07:12:41;87.83;;;80.90;;
16804;SDS011;8520;50.102;20.010;2024-02-16T07:15:09;86.00;;;79.30;;
16804;SDS011;8520;50.102;20.010;2024-02-16T07:17:38;88.90;;;82.10;;
16804;SDS011;8520;50.102;20.010;2024-02-16T07:20:07;85.13;;;78.23;;
16804;SDS011;8520;50.102;20.010;2024-02-16T07:22:35;86.20;;;79.20;;
16804;SDS011;8520;50.102;20.010;2024-02-16T07:25:03;83.57;;;76.90;;
16804;SDS011;8520;50.102;20.010;2024-02-16T07:27:32;81.27;;;74.90;;
16804;SDS011;8520;50.102;20.010;2024-02-16T07:30:00;81.47;;;74.97;;
16804;SDS011;8520;50.102;20.010;2024-02-16T07:32:28;78.63;;;72.03;;
16804;SDS011;8520;50.102;20.010;2024-02-16T07:34:57;78.10;;;71.87;;
16804;SDS011;8520;50.102;20.010;2024-02-16T07:37:25;76.67;;;70.67;;
16804;SDS011;8520;50.102;20.010;2024-02-16T07:39:53;81.87;;;74.77;;
16804;SDS011;8520;50.102;20.010;2024-02-16T07:42:21;78.40;;;71.80;;
16804;SDS011;8520;50.102;20.010;2024-02-16T07:44:49;80.73;;;74.17;;
16804;SDS011;8520;50.102;20.010;2024-02-16T07:47:18;78.53;;;72.23;;
16804;SDS011;8520;50.102;20.010;2024-02-16T07:49:46;79.93;;;73.57;;
16804;SDS011;8520;50.102;20.010;2024-02-16T07:52:16;77.97;;;71.67;;
16804;SDS011;8520;50.102;20.010;2024-02-16T07:54:44;77.13;;;70.90;;
16804;SDS011;8520;50.102;20.010;2024-02-16T07:57:12;78.23;;;71.90;;
16804;SDS011;8520;50.102;20.010;2024-02-16T07:59:40;77.43;;;70.97;;
16804;SDS011;8520;50.102;20.010;2024-02-16T08:02:08;76.03;;;69.73;;
16804;SDS011;8520;50.102;20.010;2024-02-16T08:04:36;77.30;;;71.03;;
16804;SDS011;8520;50.102;20.010;2024-02-16T08:07:07;74.00;;;67.80;;
16804;SDS011;8520;50.102;20.010;2024-02-16T08:09:37;76.20;;;69.60;;
16804;SDS011;8520;50.102;20.010;2024-02-16T08:12:06;75.53;;;69.00;;
16804;SDS011;8520;50.102;20.010;2024-02-16T08:14:34;74.20;;;67.73;;
16804;SDS011;8520;50.102;20.010;2024-02-16T08:17:02;73.37;;;67.03;;
16804;SDS011;8520;50.102;20.010;2024-02-16T08:19:44;76.50;;;69.77;;
16804;SDS011;8520;50.102;20.010;2024-02-16T08:22:19;72.70;;;66.47;;
16804;SDS011;8520;50.102;20.010;2024-02-16T08:24:48;73.40;;;67.13;;
16804;SDS011;8520;50.102;20.010;2024-02-16T08:27:16;70.80;;;64.60;;
16804;SDS011;8520;50.102;20.010;2024-02-16T08:29:44;70.10;;;64.30;;
16804;SDS011;8520;50.102;20.010;2024-02-16T08:32:13;70.47;;;64.40;;
16804;SDS011;8520;50.102;20.010;2024-02-16T08:34:43;69.27;;;63.33;;
16804;SDS011;8520;50.102;20.010;2024-02-16T08:37:11;70.80;;;64.10;;
16804;SDS011;8520;50.102;20.010;2024-02-16T08:39:39;66.70;;;61.03;;
16804;SDS011;8520;50.102;20.010;2024-02-16T08:42:09;63.73;;;58.43;;
16804;SDS011;8520;50.102;20.010;2024-02-16T08:44:38;63.97;;;58.77;;
16804;SDS011;8520;50.102;20.010;2024-02-16T08:47:07;63.07;;;57.70;;
16804;SDS011;8520;50.102;20.010;2024-02-16T08:49:35;62.83;;;57.73;;
16804;SDS011;8520;50.102;20.010;2024-02-16T08:52:06;60.70;;;55.93;;
16804;SDS011;8520;50.102;20.010;2024-02-16T08:54:34;59.77;;;54.97;;
16804;SDS011;8520;50.102;20.010;2024-02-16T08:57:04;58.93;;;54.00;;
16804;SDS011;8520;50.102;20.010;2024-02-16T08:59:33;57.00;;;52.30;;
16804;SDS011;8520;50.102;20.010;2024-02-16T09:02:02;56.27;;;51.40;;
16804;SDS011;8520;50.102;20.010;2024-02-16T09:04:30;54.63;;;50.13;;
16804;SDS011;8520;50.102;20.010;2024-02-16T09:06:58;54.33;;;49.93;;
16804;SDS011;8520;50.102;20.010;2024-02-16T09:09:26;54.47;;;49.77;;
16804;SDS011;8520;50.102;20.010;2024-02-16T09:11:55;51.90;;;47.60;;
16804;SDS011;8520;50.102;20.010;2024-02-16T09:14:24;50.07;;;45.90;;
16804;SDS011;8520;50.102;20.010;2024-02-16T09:16:53;51.13;;;46.70;;
16804;SDS011;8520;50.102;20.010;2024-02-16T09:19:21;48.27;;;44.17;;
16804;SDS011;8520;50.102;20.010;2024-02-16T09:21:49;44.67;;;41.00;;
16804;SDS011;8520;50.102;20.010;2024-02-16T09:24:20;44.33;;;40.43;;
16804;SDS011;8520;50.102;20.010;2024-02-16T09:26:48;43.97;;;40.50;;
16804;SDS011;8520;50.102;20.010;2024-02-16T09:29:16;41.23;;;37.70;;
16804;SDS011;8520;50.102;20.010;2024-02-16T09:31:44;39.87;;;36.87;;
16804;SDS011;8520;50.102;20.010;2024-02-16T09:34:14;41.83;;;38.47;;
16804;SDS011;8520;50.102;20.010;2024-02-16T09:36:42;39.90;;;36.67;;
16804;SDS011;8520;50.102;20.010;2024-02-16T09:39:10;40.00;;;36.70;;
16804;SDS011;8520;50.102;20.010;2024-02-16T09:41:40;39.53;;;36.33;;
16804;SDS011;8520;50.102;20.010;2024-02-16T09:44:09;38.37;;;35.03;;
16804;SDS011;8520;50.102;20.010;2024-02-16T09:46:37;38.53;;;35.33;;
16804;SDS011;8520;50.102;20.010;2024-02-16T09:49:05;39.07;;;35.63;;
16804;SDS011;8520;50.102;20.010;2024-02-16T09:51:36;40.17;;;36.63;;
16804;SDS011;8520;50.102;20.010;2024-02-16T09:54:05;39.63;;;36.20;;
16804;SDS011;8520;50.102;20.010;2024-02-16T09:56:34;37.73;;;34.60;;
16804;SDS011;8520;50.102;20.010;2024-02-16T09:59:02;37.97;;;34.77;;
16804;SDS011;8520;50.102;20.010;2024-02-16T10:01:35;37.97;;;34.57;;
16804;SDS011;8520;50.102;20.010;2024-02-16T10:04:06;36.60;;;33.40;;
16804;SDS011;8520;50.102;20.010;2024-02-16T10:06:46;37.33;;;33.83;;
16804;SDS011;8520;50.102;20.010;2024-02-16T10:09:22;35.50;;;32.43;;
16804;SDS011;8520;50.102;20.010;2024-02-16T10:11:50;36.00;;;32.90;;
16804;SDS011;8520;50.102;20.010;2024-02-16T10:14:18;35.03;;;32.17;;
16804;SDS011;8520;50.102;20.010;2024-02-16T10:16:47;34.07;;;30.97;;
16804;SDS011;8520;50.102;20.010;2024-02-16T10:19:17;34.17;;;30.93;;
16804;SDS011;8520;50.102;20.010;2024-02-16T10:21:47;35.77;;;31.80;;
16804;SDS011;8520;50.102;20.010;2024-02-16T10:24:15;34.43;;;30.97;;
16804;SDS011;8520;50.102;20.010;2024-02-16T10:26:43;34.77;;;31.33;;
16804;SDS011;8520;50.102;20.010;2024-02-16T10:29:11;33.70;;;30.40;;
16804;SDS011;8520;50.102;20.010;2024-02-16T10:31:40;33.73;;;30.53;;
16804;SDS011;8520;50.102;20.010;2024-02-16T10:34:08;34.07;;;30.53;;
16804;SDS011;8520;50.102;20.010;2024-02-16T10:36:37;32.23;;;29.27;;
16804;SDS011;8520;50.102;20.010;2024-02-16T10:39:09;32.63;;;29.30;;
16804;SDS011;8520;50.102;20.010;2024-02-16T10:41:39;31.77;;;28.57;;
16804;SDS011;8520;50.102;20.010;2024-02-16T10:44:07;31.67;;;28.10;;
16804;SDS011;8520;50.102;20.010;2024-02-16T10:46:35;30.97;;;27.80;;
16804;SDS011;8520;50.102;20.010;2024-02-16T10:49:03;29.50;;;26.87;;
16804;SDS011;8520;50.102;20.010;2024-02-16T10:51:34;30.73;;;27.33;;
16804;SDS011;8520;50.102;20.010;2024-02-16T10:54:05;29.30;;;26.17;;
16804;SDS011;8520;50.102;20.010;2024-02-16T10:56:36;29.13;;;26.13;;
16804;SDS011;8520;50.102;20.010;2024-02-16T10:59:05;28.37;;;25.50;;
16804;SDS011;8520;50.102;20.010;2024-02-16T11:01:37;27.93;;;25.00;;
16804;SDS011;8520;50.102;20.010;2024-02-16T11:04:05;28.50;;;25.60;;
16804;SDS011;8520;50.102;20.010;2024-02-16T11:06:45;27.30;;;24.53;;
16804;SDS011;8520;50.102;20.010;2024-02-16T11:09:27;27.47;;;24.53;;
16804;SDS011;8520;50.102;20.010;2024-02-16T11:11:58;24.27;;;22.10;;
16804;SDS011;8520;50.102;20.010;2024-02-16T11:14:34;22.77;;;20.67;;
16804;SDS011;8520;50.102;20.010;2024-02-16T11:17:02;22.57;;;20.23;;
16804;SDS011;8520;50.102;20.010;2024-02-16T11:19:30;21.47;;;19.63;;
16804;SDS011;8520;50.102;20.010;2024-02-16T11:21:58;21.40;;;19.37;;
16804;SDS011;8520;50.102;20.010;2024-02-16T11:24:30;21.27;;;19.27;;
16804;SDS011;8520;50.102;20.010;2024-02-16T11:27:02;19.77;;;18.17;;
16804;SDS011;8520;50.102;20.010;2024-02-16T11:29:31;20.80;;;18.90;;
16804;SDS011;8520;50.102;20.010;2024-02-16T11:32:00;20.00;;;18.37;;
16804;SDS011;8520;50.102;20.010;2024-02-16T11:34:29;21.37;;;19.47;;
16804;SDS011;8520;50.102;20.010;2024-02-16T11:36:57;21.40;;;19.50;;
16804;SDS011;8520;50.102;20.010;2024-02-16T11:39:26;18.63;;;17.03;;
16804;SDS011;8520;50.102;20.010;2024-02-16T11:42:00;20.50;;;18.33;;
16804;SDS011;8520;50.102;20.010;2024-02-16T11:44:30;20.20;;;18.20;;
16804;SDS011;8520;50.102;20.010;2024-02-16T11:46:59;20.23;;;18.23;;
16804;SDS011;8520;50.102;20.010;2024-02-16T11:49:28;19.70;;;18.03;;
16804;SDS011;8520;50.102;20.010;2024-02-16T11:51:56;20.37;;;18.00;;
16804;SDS011;8520;50.102;20.010;2024-02-16T11:54:24;18.50;;;16.83;;
16804;SDS011;8520;50.102;20.010;2024-02-16T11:56:52;18.53;;;16.97;;
16804;SDS011;8520;50.102;20.010;2024-02-16T11:59:20;16.40;;;15.10;;
16804;SDS011;8520;50.102;20.010;2024-02-16T12:01:51;18.03;;;16.53;;
16804;SDS011;8520;50.102;20.010;2024-02-16T12:04:20;17.27;;;15.87;;
16804;SDS011;8520;50.102;20.010;2024-02-16T12:06:50;17.50;;;16.00;;
16804;SDS011;8520;50.102;20.010;2024-02-16T12:09:18;17.58;;;16.00;;
16804;SDS011;8520;50.102;20.010;2024-02-16T12:11:47;17.17;;;15.25;;
16804;SDS011;8520;50.102;20.010;2024-02-16T12:14:16;15.88;;;14.52;;
16804;SDS011;8520;50.102;20.010;2024-02-16T12:16:46;15.52;;;14.30;;
16804;SDS011;8520;50.102;20.010;2024-02-16T12:19:16;14.70;;;13.52;;
16804;SDS011;8520;50.102;20.010;2024-02-16T12:21:44;15.15;;;13.65;;
16804;SDS011;8520;50.102;20.010;2024-02-16T12:24:12;14.35;;;13.07;;
16804;SDS011;8520;50.102;20.010;2024-02-16T12:26:40;14.63;;;13.32;;
16804;SDS011;8520;50.102;20.010;2024-02-16T12:29:09;13.52;;;12.23;;
16804;SDS011;8520;50.102;20.010;2024-02-16T12:31:39;13.18;;;12.02;;
16804;SDS011;8520;50.102;20.010;2024-02-16T12:34:07;13.70;;;12.30;;
16804;SDS011;8520;50.102;20.010;2024-02-16T12:36:38;13.38;;;12.27;;
16804;SDS011;8520;50.102;20.010;2024-02-16T12:39:06;12.50;;;11.57;;
16804;SDS011;8520;50.102;20.010;2024-02-16T12:41:35;13.85;;;12.38;;
16804;SDS011;8520;50.102;20.010;2024-02-16T12:44:04;13.20;;;12.23;;
16804;SDS011;8520;50.102;20.010;2024-02-16T12:46:32;12.68;;;11.50;;
16804;SDS011;8520;50.102;20.010;2024-02-16T12:49:00;11.20;;;10.02;;
16804;SDS011;8520;50.102;20.010;2024-02-16T12:51:28;10.77;;;9.80;;
16804;SDS011;8520;50.102;20.010;2024-02-16T12:53:58;11.50;;;10.48;;
16804;SDS011;8520;50.102;20.010;2024-02-16T12:56:27;11.20;;;10.30;;
16804;SDS011;8520;50.102;20.010;2024-02-16T12:58:55;11.13;;;10.00;;
16804;SDS011;8520;50.102;20.010;2024-02-16T13:01:23;10.75;;;9.90;;
16804;SDS011;8520;50.102;20.010;2024-02-16T13:03:52;12.82;;;10.52;;
16804;SDS011;8520;50.102;20.010;2024-02-16T13:06:20;10.85;;;10.05;;
16804;SDS011;8520;50.102;20.010;2024-02-16T13:08:54;11.50;;;10.60;;
16804;SDS011;8520;50.102;20.010;2024-02-16T13:11:24;11.18;;;10.18;;
16804;SDS011;8520;50.102;20.010;2024-02-16T13:13:52;11.00;;;10.07;;
16804;SDS011;8520;50.102;20.010;2024-02-16T13:16:20;10.43;;;9.63;;
16804;SDS011;8520;50.102;20.010;2024-02-16T13:18:48;11.05;;;10.15;;
16804;SDS011;8520;50.102;20.010;2024-02-16T13:21:16;10.60;;;9.80;;
16804;SDS011;8520;50.102;20.010;2024-02-16T13:23:44;10.73;;;9.88;;
16804;SDS011;8520;50.102;20.010;2024-02-16T13:26:12;10.85;;;9.98;;
16804;SDS011;8520;50.102;20.010;2024-02-16T13:28:42;11.15;;;10.02;;
16804;SDS011;8520;50.102;20.010;2024-02-16T13:31:10;11.10;;;9.77;;
16804;SDS011;8520;50.102;20.010;2024-02-16T13:33:38;11.18;;;10.13;;
16804;SDS011;8520;50.102;20.010;2024-02-16T13:36:06;11.55;;;10.48;;
16804;SDS011;8520;50.102;20.010;2024-02-16T13:38:36;11.23;;;10.15;;
16804;SDS011;8520;50.102;20.010;2024-02-16T13:41:04;10.75;;;9.75;;
16804;SDS011;8520;50.102;20.010;2024-02-16T13:43:32;10.23;;;9.32;;
16804;SDS011;8520;50.102;20.010;2024-02-16T13:46:01;10.50;;;9.57;;
16804;SDS011;8520;50.102;20.010;2024-02-16T13:48:30;10.60;;;8.95;;
16804;SDS011;8520;50.102;20.010;2024-02-16T13:50:58;9.60;;;8.80;;
16804;SDS011;8520;50.102;20.010;2024-02-16T13:53:27;9.45;;;8.45;;
16804;SDS011;8520;50.102;20.010;2024-02-16T13:55:55;9.70;;;8.88;;
16804;SDS011;8520;50.102;20.010;2024-02-16T13:58:27;9.15;;;8.45;;
16804;SDS011;8520;50.102;20.010;2024-02-16T14:00:55;10.48;;;8.75;;
16804;SDS011;8520;50.102;20.010;2024-02-16T14:03:25;9.23;;;8.20;;
16804;SDS011;8520;50.102;20.010;2024-02-16T14:05:53;8.85;;;8.25;;
16804;SDS011;8520;50.102;20.010;2024-02-16T14:08:21;8.40;;;7.72;;
16804;SDS011;8520;50.102;20.010;2024-02-16T14:10:49;10.13;;;9.23;;
16804;SDS011;8520;50.102;20.010;2024-02-16T14:13:17;10.85;;;8.02;;
16804;SDS011;8520;50.102;20.010;2024-02-16T14:15:46;9.02;;;8.13;;
16804;SDS011;8520;50.102;20.010;2024-02-16T14:18:14;8.32;;;7.68;;
16804;SDS011;8520;50.102;20.010;2024-02-16T14:20:56;8.38;;;7.57;;
16804;SDS011;8520;50.102;20.010;2024-02-16T14:23:24;7.97;;;7.28;;
16804;SDS011;8520;50.102;20.010;2024-02-16T14:25:53;8.27;;;7.57;;